createdAt,value
2017-11-09T00:03:03.940Z,35.80
2017-11-09T00:05:37.286Z,40.20
2017-11-09T00:08:04.914Z,44.40
2017-11-09T00:10:32.533Z,41.20
2017-11-09T00:13:00.263Z,39.77
2017-11-09T00:15:27.949Z,40.30
2017-11-09T00:17:55.567Z,44.33
2017-11-09T00:20:23.238Z,65.13
2017-11-09T00:22:50.862Z,53.57
2017-11-09T00:25:18.545Z,45.50
2017-11-09T00:27:46.214Z,45.37
2017-11-09T00:30:13.901Z,44.60
2017-11-09T00:32:41.582Z,52.37
2017-11-09T00:35:09.258Z,42.23
2017-11-09T00:37:36.952Z,46.23
2017-11-09T00:40:04.680Z,46.83
2017-11-09T00:42:32.352Z,42.30
2017-11-09T00:44:59.984Z,72.70
2017-11-09T00:47:27.607Z,56.90
2017-11-09T00:49:55.277Z,53.13
2017-11-09T00:52:22.969Z,52.20
2017-11-09T00:54:50.577Z,44.33
2017-11-09T00:57:18.247Z,40.70
2017-11-09T00:59:45.862Z,37.30
2017-11-09T01:02:13.542Z,37.77
2017-11-09T01:04:41.214Z,40.23
2017-11-09T01:07:08.893Z,36.27
2017-11-09T01:09:36.569Z,55.37
2017-11-09T01:12:04.248Z,44.03
2017-11-09T01:14:31.863Z,38.17
2017-11-09T01:16:59.472Z,41.97
2017-11-09T01:19:27.131Z,46.10
2017-11-09T01:21:54.753Z,42.70
2017-11-09T01:24:22.368Z,36.03
2017-11-09T01:26:50.060Z,43.60
2017-11-09T01:29:17.680Z,43.53
2017-11-09T01:31:45.365Z,49.30
2017-11-09T01:34:13.026Z,49.63
2017-11-09T01:36:40.714Z,49.73
2017-11-09T01:39:08.401Z,51.90
2017-11-09T01:41:36.136Z,54.60
2017-11-09T01:44:03.752Z,54.00
2017-11-09T01:46:31.384Z,72.93
2017-11-09T01:48:59.064Z,52.03
2017-11-09T01:51:26.694Z,47.63
2017-11-09T01:53:54.381Z,46.80
2017-11-09T01:56:22.036Z,44.60
2017-11-09T01:58:49.657Z,55.37
2017-11-09T02:01:17.283Z,53.13
2017-11-09T02:03:44.953Z,70.47
2017-11-09T02:06:12.633Z,65.90
2017-11-09T02:08:40.260Z,50.83
2017-11-09T02:11:07.932Z,56.63
2017-11-09T02:13:35.553Z,54.30
2017-11-09T02:16:03.175Z,60.53
2017-11-09T02:18:30.835Z,70.43
2017-11-09T02:20:58.521Z,69.43
2017-11-09T02:23:26.206Z,55.97
2017-11-09T02:25:53.896Z,59.50
2017-11-09T02:28:21.592Z,49.43
2017-11-09T02:30:49.285Z,55.80
2017-11-09T02:33:16.992Z,51.77
2017-11-09T02:35:44.625Z,53.23
2017-11-09T02:38:12.277Z,56.60
2017-11-09T02:40:39.947Z,55.10
2017-11-09T02:43:07.570Z,74.90
2017-11-09T02:45:35.212Z,76.00
2017-11-09T02:48:02.909Z,61.73
2017-11-09T02:50:30.533Z,51.77
2017-11-09T02:52:58.409Z,53.57
2017-11-09T02:55:26.091Z,58.83
2017-11-09T02:57:53.724Z,59.37
2017-11-09T03:00:21.418Z,78.70
2017-11-09T03:02:49.100Z,59.37
2017-11-09T03:05:16.723Z,70.87
2017-11-09T03:07:44.412Z,61.57
2017-11-09T03:10:12.093Z,74.00
2017-11-09T03:12:39.712Z,72.77
2017-11-09T03:15:07.333Z,61.90
2017-11-09T03:17:35.017Z,64.00
2017-11-09T03:20:02.655Z,60.27
2017-11-09T03:22:30.277Z,82.17
2017-11-09T03:24:57.960Z,67.03
2017-11-09T03:27:25.646Z,62.63
2017-11-09T03:29:53.320Z,70.53
2017-11-09T03:32:20.986Z,78.20
2017-11-09T03:34:48.605Z,63.97
2017-11-09T03:37:16.226Z,77.23
2017-11-09T03:39:43.944Z,75.00
2017-11-09T03:42:11.553Z,75.33
2017-11-09T03:44:39.168Z,73.13
2017-11-09T03:47:06.937Z,78.83
2017-11-09T03:49:34.552Z,76.60
2017-11-09T03:52:02.194Z,72.37
2017-11-09T03:54:29.930Z,88.47
2017-11-09T03:56:57.547Z,77.70
2017-11-09T03:59:25.163Z,79.73
2017-11-09T04:01:52.833Z,68.07
2017-11-09T04:04:20.448Z,68.83
2017-11-09T04:06:48.071Z,74.33
2017-11-09T04:09:15.743Z,63.77
2017-11-09T04:11:43.420Z,78.33
2017-11-09T04:14:11.029Z,81.27
2017-11-09T04:16:38.753Z,75.47
2017-11-09T04:19:06.364Z,67.20
2017-11-09T04:21:34.040Z,68.13
2017-11-09T04:24:01.712Z,67.30
2017-11-09T04:26:30.320Z,68.60
2017-11-09T04:28:57.948Z,72.73
2017-11-09T04:31:25.617Z,84.33
2017-11-09T04:33:53.245Z,78.23
2017-11-09T04:36:20.861Z,77.53
2017-11-09T04:38:48.574Z,70.53
2017-11-09T04:41:16.187Z,75.80
2017-11-09T04:43:43.811Z,279.07
2017-11-09T04:46:11.472Z,104.03
2017-11-09T04:48:39.092Z,70.30
2017-11-09T04:51:06.716Z,68.50
2017-11-09T04:53:34.400Z,72.57
2017-11-09T04:56:02.028Z,73.57
2017-11-09T04:58:29.704Z,83.37
2017-11-09T05:00:57.372Z,73.73
2017-11-09T05:03:25.044Z,74.57
2017-11-09T05:05:52.679Z,74.73
2017-11-09T05:08:20.408Z,73.23
2017-11-09T05:10:48.027Z,78.93
2017-11-09T05:13:15.693Z,84.07
2017-11-09T05:15:43.369Z,73.47
2017-11-09T05:18:11.048Z,90.93
2017-11-09T05:20:38.732Z,84.80
2017-11-09T05:23:06.459Z,92.30
2017-11-09T05:25:34.150Z,75.90
2017-11-09T05:28:01.787Z,86.73
2017-11-09T05:30:29.541Z,83.90
2017-11-09T05:32:57.220Z,71.73
2017-11-09T05:35:24.848Z,88.87
2017-11-09T05:37:52.512Z,82.13
2017-11-09T05:40:20.142Z,76.37
2017-11-09T05:42:47.838Z,78.57
2017-11-09T05:45:15.576Z,78.93
2017-11-09T05:47:43.198Z,73.10
2017-11-09T05:50:10.901Z,80.53
2017-11-09T05:52:38.725Z,86.20
2017-11-09T05:55:06.352Z,74.43
2017-11-09T05:57:34.041Z,85.20
2017-11-09T06:00:01.720Z,86.40
2017-11-09T06:02:29.386Z,85.00
2017-11-09T06:04:57.021Z,80.30
2017-11-09T06:07:24.688Z,86.57
2017-11-09T06:09:52.381Z,77.50
2017-11-09T06:12:20.061Z,90.27
2017-11-09T06:14:47.805Z,82.50
2017-11-09T06:17:15.433Z,88.57
2017-11-09T06:19:43.046Z,89.97
2017-11-09T06:22:10.769Z,81.70
2017-11-09T06:24:38.388Z,82.57
2017-11-09T06:27:06.013Z,88.70
2017-11-09T06:29:33.852Z,81.87
2017-11-09T06:32:01.476Z,86.50
2017-11-09T06:34:29.101Z,92.67
2017-11-09T06:36:56.773Z,88.93
2017-11-09T06:39:24.459Z,85.80
2017-11-09T06:41:52.079Z,74.83
2017-11-09T06:44:19.757Z,67.83
2017-11-09T06:46:47.377Z,66.90
2017-11-09T06:49:14.987Z,65.90
2017-11-09T06:51:42.660Z,63.50
2017-11-09T06:54:10.292Z,62.13
2017-11-09T06:56:37.995Z,74.57
2017-11-09T06:59:05.682Z,63.23
2017-11-09T07:01:33.303Z,74.47
2017-11-09T07:04:00.930Z,68.50
2017-11-09T07:06:28.601Z,69.10
2017-11-09T07:08:56.245Z,70.10
2017-11-09T07:11:23.864Z,69.23
2017-11-09T07:13:51.536Z,63.00
2017-11-09T07:16:19.224Z,60.37
2017-11-09T07:18:46.913Z,74.93
2017-11-09T07:21:14.601Z,57.17
2017-11-09T07:23:42.228Z,62.67
2017-11-09T07:26:09.866Z,61.90
2017-11-09T07:28:37.709Z,63.07
2017-11-09T07:31:05.353Z,58.67
2017-11-09T07:33:33.040Z,55.67
2017-11-09T07:36:00.729Z,55.73
2017-11-09T07:38:28.350Z,53.90
2017-11-09T07:40:56.021Z,50.77
2017-11-09T07:43:23.704Z,51.63
2017-11-09T07:45:51.335Z,64.10
2017-11-09T07:48:18.956Z,54.47
2017-11-09T07:50:46.646Z,64.90
2017-11-09T07:53:14.268Z,64.07
2017-11-09T07:55:41.884Z,59.80
2017-11-09T07:58:09.581Z,58.70
2017-11-09T08:00:37.280Z,62.17
2017-11-09T08:03:04.906Z,72.87
2017-11-09T08:05:32.590Z,72.33
2017-11-09T08:08:00.276Z,80.20
2017-11-09T08:10:27.913Z,71.10
2017-11-09T08:12:55.605Z,58.83
2017-11-09T08:15:23.230Z,54.70
2017-11-09T08:17:50.869Z,55.53
2017-11-09T08:20:18.554Z,48.30
2017-11-09T08:22:46.184Z,51.43
2017-11-09T08:25:16.640Z,50.97
2017-11-09T08:27:46.057Z,50.03
2017-11-09T08:30:14.088Z,55.13
2017-11-09T08:32:46.328Z,51.37
2017-11-09T08:35:14.019Z,49.43
2017-11-09T08:37:41.656Z,48.10
2017-11-09T08:40:09.289Z,46.33
2017-11-09T08:42:36.968Z,52.50
2017-11-09T08:45:04.588Z,57.53
2017-11-09T08:47:32.217Z,45.23
2017-11-09T08:50:00.065Z,51.53
2017-11-09T08:52:27.703Z,52.90
2017-11-09T08:54:55.397Z,48.33
2017-11-09T08:57:23.064Z,49.70
2017-11-09T08:59:50.708Z,55.43
2017-11-09T09:02:18.337Z,60.43
2017-11-09T09:04:46.107Z,60.70
2017-11-09T09:07:13.749Z,49.50
2017-11-09T09:09:41.383Z,60.40
2017-11-09T09:12:09.128Z,55.03
2017-11-09T09:14:36.807Z,58.87
2017-11-09T09:17:04.500Z,51.17
2017-11-09T09:19:32.228Z,60.13
2017-11-09T09:22:02.425Z,68.43
2017-11-09T09:24:30.169Z,51.83
2017-11-09T09:29:58.018Z,50.77
2017-11-09T09:32:26.162Z,51.57
2017-11-09T09:35:13.061Z,49.90
2017-11-09T09:37:44.637Z,47.33
2017-11-09T09:40:14.432Z,44.57
2017-11-09T09:42:42.125Z,41.87
2017-11-09T09:45:09.937Z,43.57
2017-11-09T09:47:37.698Z,42.47
2017-11-09T09:50:05.471Z,52.23
2017-11-09T09:52:33.177Z,46.13
2017-11-09T09:55:00.875Z,46.40
2017-11-09T09:57:28.585Z,43.73
2017-11-09T09:59:56.328Z,52.37
2017-11-09T10:02:24.026Z,52.37
2017-11-09T10:04:51.673Z,47.57
2017-11-09T10:07:19.418Z,51.33
2017-11-09T10:09:47.177Z,54.97
2017-11-09T10:12:14.935Z,51.37
2017-11-09T10:14:42.617Z,44.53
2017-11-09T10:17:10.300Z,43.60
2017-11-09T10:19:37.993Z,49.15
2017-11-09T10:22:05.681Z,48.23
2017-11-09T10:24:33.304Z,40.30
2017-11-09T10:27:00.936Z,43.70
2017-11-09T10:29:28.678Z,44.83
2017-11-09T10:31:56.314Z,49.10
2017-11-09T10:34:24.016Z,40.43
2017-11-09T10:36:51.701Z,48.97
2017-11-09T10:39:19.320Z,40.27
2017-11-09T10:41:47.053Z,44.40
2017-11-09T10:44:14.725Z,54.33
2017-11-09T10:46:42.357Z,45.90
2017-11-09T10:49:09.989Z,46.03
2017-11-09T10:51:37.677Z,49.13
2017-11-09T10:54:05.315Z,44.57
2017-11-09T10:56:32.956Z,47.77
2017-11-09T10:59:00.702Z,45.13
2017-11-09T11:01:28.337Z,50.43
2017-11-09T11:03:56.038Z,49.73
2017-11-09T11:06:23.788Z,46.17
2017-11-09T11:08:51.421Z,54.80
2017-11-09T11:11:19.129Z,71.67
2017-11-09T11:13:46.803Z,45.90
2017-11-09T11:16:14.445Z,47.80
2017-11-09T11:18:42.086Z,62.47
2017-11-09T11:21:09.766Z,46.37
2017-11-09T11:23:37.405Z,44.27
2017-11-09T11:26:05.025Z,44.50
2017-11-09T11:28:32.693Z,45.67
2017-11-09T11:31:00.321Z,50.07
2017-11-09T11:33:27.940Z,44.23
2017-11-09T11:35:55.615Z,50.70
2017-11-09T11:38:23.240Z,44.27
2017-11-09T11:40:50.864Z,41.63
2017-11-09T11:43:18.536Z,48.20
2017-11-09T11:45:46.173Z,40.73
2017-11-09T11:48:13.800Z,43.43
2017-11-09T11:50:41.486Z,44.27
2017-11-09T11:53:09.106Z,37.27
2017-11-09T11:55:36.750Z,48.03
2017-11-09T11:58:04.420Z,51.60
2017-11-09T12:00:32.064Z,44.27
2017-11-09T12:02:59.765Z,50.00
2017-11-09T12:05:27.500Z,52.80
2017-11-09T12:07:55.124Z,43.87
2017-11-09T12:10:23.701Z,39.43
2017-11-09T12:12:51.372Z,49.70
2017-11-09T12:15:19.051Z,41.50
2017-11-09T12:17:46.674Z,56.17
2017-11-09T12:20:14.358Z,70.03
2017-11-09T12:22:42.045Z,41.87
2017-11-09T12:25:09.748Z,60.87
2017-11-09T12:27:37.426Z,53.80
2017-11-09T12:30:05.074Z,43.73
2017-11-09T12:32:32.780Z,41.53
2017-11-09T12:35:00.461Z,55.50
2017-11-09T12:37:28.153Z,39.83
2017-11-09T12:39:55.849Z,36.47
2017-11-09T12:42:23.582Z,48.80
2017-11-09T12:44:51.369Z,33.20
2017-11-09T12:47:19.122Z,26.27
2017-11-09T12:49:46.894Z,46.30
2017-11-09T12:52:14.521Z,61.07
2017-11-09T12:54:42.153Z,57.93
2017-11-09T12:57:09.882Z,42.07
2017-11-09T12:59:37.980Z,43.67
2017-11-09T13:02:05.625Z,42.47
2017-11-09T13:04:33.354Z,29.10
2017-11-09T13:07:01.043Z,86.23
2017-11-09T13:09:28.668Z,103.30
2017-11-09T13:11:56.461Z,219.73
2017-11-09T13:14:24.184Z,77.13
2017-11-09T13:16:51.859Z,55.90
2017-11-09T13:22:13.428Z,44.07
2017-11-09T13:24:41.100Z,56.93
2017-11-09T13:27:08.784Z,66.13
2017-11-09T13:29:36.457Z,39.70
2017-11-09T13:32:04.293Z,51.67
2017-11-09T13:34:31.964Z,43.30
2017-11-09T13:37:00.357Z,43.10
2017-11-09T13:39:28.030Z,43.63
2017-11-09T13:41:55.687Z,48.57
2017-11-09T13:44:23.380Z,40.90
2017-11-09T13:46:51.064Z,39.90
2017-11-09T13:49:18.682Z,41.27
2017-11-09T13:51:46.313Z,54.03
2017-11-09T13:54:13.991Z,46.77
2017-11-09T13:56:41.620Z,38.30
2017-11-09T13:59:09.243Z,51.50
2017-11-09T14:01:36.975Z,53.03
2017-11-09T14:04:04.617Z,41.97
2017-11-09T14:06:32.259Z,52.63
2017-11-09T14:09:00.010Z,49.33
2017-11-09T14:11:27.640Z,55.33
2017-11-09T14:13:55.330Z,56.63
2017-11-09T14:16:23.024Z,54.73
2017-11-09T14:18:50.718Z,45.20
2017-11-09T14:21:18.343Z,55.60
2017-11-09T14:23:46.160Z,32.87
2017-11-09T14:26:13.788Z,52.10
2017-11-09T14:28:41.473Z,50.67
2017-11-09T14:31:09.157Z,59.83
2017-11-09T14:33:36.787Z,48.83
2017-11-09T14:36:04.416Z,61.50
2017-11-09T14:38:32.101Z,63.97
2017-11-09T14:40:59.729Z,60.90
2017-11-09T14:43:27.413Z,68.83
2017-11-09T14:45:55.143Z,70.43
2017-11-09T14:48:22.771Z,52.50
2017-11-09T14:50:50.401Z,37.77
2017-11-09T14:53:18.089Z,47.17
2017-11-09T14:55:45.719Z,58.93
2017-11-09T14:58:13.336Z,60.47
2017-11-09T15:00:41.083Z,45.97
2017-11-09T15:03:08.712Z,36.30
2017-11-09T15:05:36.388Z,50.73
2017-11-09T15:08:04.216Z,51.60
2017-11-09T15:10:31.891Z,54.90
2017-11-09T15:12:59.572Z,46.10
2017-11-09T15:15:27.254Z,40.53
2017-11-09T15:17:54.913Z,56.27
2017-11-09T15:20:22.646Z,31.27
2017-11-09T15:22:50.441Z,40.50
2017-11-09T15:25:18.132Z,30.43
2017-11-09T15:27:45.773Z,30.87
2017-11-09T15:30:13.561Z,49.67
2017-11-09T15:32:41.255Z,39.40
2017-11-09T15:35:10.785Z,43.10
2017-11-09T15:37:38.456Z,54.93
2017-11-09T15:40:06.139Z,56.50
2017-11-09T15:42:33.772Z,53.97
2017-11-09T15:45:01.448Z,41.03
2017-11-09T15:47:29.084Z,31.97
2017-11-09T15:49:56.712Z,37.60
2017-11-09T15:52:24.384Z,29.20
2017-11-09T15:54:52.017Z,46.60
2017-11-09T15:57:19.637Z,42.70
2017-11-09T15:59:47.326Z,39.83
2017-11-09T16:02:14.952Z,40.27
2017-11-09T16:04:42.673Z,64.07
2017-11-09T16:07:16.139Z,65.07
2017-11-09T16:09:43.817Z,56.47
2017-11-09T16:12:11.430Z,50.17
2017-11-09T16:14:39.250Z,88.53
2017-11-09T16:17:06.873Z,71.67
2017-11-09T16:19:34.496Z,69.27
2017-11-09T16:22:02.159Z,84.07
2017-11-09T16:24:29.788Z,53.27
2017-11-09T16:26:57.456Z,80.43
2017-11-09T16:29:25.126Z,72.23
2017-11-09T16:31:52.752Z,61.07
2017-11-09T16:34:20.377Z,69.50
2017-11-09T16:36:48.046Z,85.30
2017-11-09T16:39:15.688Z,59.10
2017-11-09T16:41:43.378Z,61.80
2017-11-09T16:44:11.049Z,54.43
2017-11-09T16:46:38.674Z,50.73
2017-11-09T16:49:06.301Z,61.47
2017-11-09T16:51:33.996Z,69.83
2017-11-09T16:54:01.659Z,58.63
2017-11-09T16:56:29.273Z,62.83
2017-11-09T16:58:57.009Z,64.23
2017-11-09T17:01:24.621Z,63.70
2017-11-09T17:03:52.244Z,53.07
2017-11-09T17:06:19.927Z,41.40
2017-11-09T17:08:47.630Z,61.50
2017-11-09T17:11:15.327Z,52.05
2017-11-09T17:13:43.011Z,52.33
2017-11-09T17:16:10.641Z,65.40
2017-11-09T17:18:38.326Z,63.00
2017-11-09T17:21:06.011Z,42.73
2017-11-09T17:23:33.644Z,47.10
2017-11-09T17:26:01.279Z,48.23
2017-11-09T17:28:28.960Z,45.27
2017-11-09T17:30:56.632Z,49.50
2017-11-09T17:33:24.322Z,46.27
2017-11-09T17:35:52.218Z,42.53
2017-11-09T17:38:19.919Z,42.87
2017-11-09T17:40:47.601Z,44.47
2017-11-09T17:43:15.309Z,45.63
2017-11-09T17:45:42.991Z,44.40
2017-11-09T17:48:10.609Z,36.80
2017-11-09T17:50:38.357Z,39.63
2017-11-09T17:53:05.982Z,32.90
2017-11-09T17:55:33.657Z,42.20
2017-11-09T17:58:01.329Z,36.57
2017-11-09T18:00:28.961Z,37.57
2017-11-09T18:02:56.648Z,37.03
2017-11-09T18:05:24.392Z,76.47
2017-11-09T18:07:52.019Z,116.57
2017-11-09T18:10:19.697Z,48.53
2017-11-09T18:12:47.377Z,66.30
2017-11-09T18:15:15.106Z,55.80
2017-11-09T18:17:42.744Z,58.70
2017-11-09T18:20:10.433Z,45.30
2017-11-09T18:22:38.111Z,49.93
2017-11-09T18:25:05.729Z,51.50
2017-11-09T18:27:33.557Z,46.30
2017-11-09T18:30:01.180Z,42.90
2017-11-09T18:32:28.813Z,55.23
2017-11-09T18:34:56.557Z,52.13
2017-11-09T18:37:24.176Z,47.37
2017-11-09T18:39:51.805Z,39.73
2017-11-09T18:42:19.543Z,46.70
2017-11-09T18:44:47.225Z,52.17
2017-11-09T18:47:14.964Z,45.10
2017-11-09T18:49:42.770Z,51.70
2017-11-09T18:52:10.438Z,44.30
2017-11-09T18:54:38.057Z,49.23
2017-11-09T18:57:05.729Z,44.40
2017-11-09T18:59:33.375Z,64.13
2017-11-09T19:02:01.000Z,47.67
2017-11-09T19:04:28.712Z,55.40
2017-11-09T19:06:56.343Z,52.77
2017-11-09T19:09:27.682Z,60.43
2017-11-09T19:11:55.476Z,69.03
2017-11-09T19:14:23.112Z,64.40
2017-11-09T19:16:50.795Z,60.40
2017-11-09T19:19:18.484Z,65.37
2017-11-09T19:21:46.105Z,68.37
2017-11-09T19:24:13.793Z,69.97
2017-11-09T19:26:41.525Z,74.27
2017-11-09T19:29:09.152Z,59.57
2017-11-09T19:31:36.776Z,76.47
2017-11-09T19:34:04.453Z,59.43
2017-11-09T19:36:32.072Z,61.60
2017-11-09T19:38:59.704Z,51.10
2017-11-09T19:41:27.441Z,64.03
2017-11-09T19:43:55.057Z,84.50
2017-11-09T19:46:22.703Z,109.30
2017-11-09T19:48:50.489Z,102.90
2017-11-09T19:51:18.121Z,124.90
2017-11-09T19:53:45.749Z,114.27
2017-11-09T19:56:13.437Z,109.00
2017-11-09T19:58:41.063Z,93.60
2017-11-09T20:01:08.700Z,95.03
2017-11-09T20:03:36.385Z,84.90
2017-11-09T20:06:04.100Z,85.93
2017-11-09T20:08:31.781Z,97.73
2017-11-09T20:10:59.448Z,136.93
2017-11-09T20:13:27.093Z,136.33
2017-11-09T20:15:54.725Z,132.47
2017-11-09T20:18:22.453Z,123.13
2017-11-09T20:20:50.081Z,120.33
2017-11-09T20:23:17.703Z,116.47
2017-11-09T20:25:45.368Z,112.90
2017-11-09T20:28:12.991Z,116.60
2017-11-09T20:30:40.610Z,99.23
2017-11-09T20:33:08.293Z,96.03
2017-11-09T20:35:35.920Z,86.67
2017-11-09T20:38:03.613Z,91.93
2017-11-09T20:40:31.336Z,95.83
2017-11-09T20:42:59.043Z,88.40
2017-11-09T20:45:26.728Z,84.57
2017-11-09T20:47:54.461Z,80.13
2017-11-09T20:50:22.084Z,82.90
2017-11-09T20:52:49.773Z,86.07
2017-11-09T20:55:17.527Z,71.13
2017-11-09T20:57:45.154Z,86.00
2017-11-09T21:00:12.787Z,70.63
2017-11-09T21:02:40.625Z,75.50
2017-11-09T21:05:08.250Z,66.53
2017-11-09T21:07:35.881Z,80.53
2017-11-09T21:10:03.565Z,70.10
2017-11-09T21:12:31.204Z,70.73
2017-11-09T21:14:58.823Z,80.07
2017-11-09T21:17:26.501Z,78.80
2017-11-09T21:19:54.135Z,77.60
2017-11-09T21:22:21.765Z,83.43
2017-11-09T21:24:49.538Z,87.13
2017-11-09T21:27:17.218Z,73.53
2017-11-09T21:29:44.837Z,69.90
2017-11-09T21:32:12.670Z,81.63
2017-11-09T21:34:40.289Z,72.60
2017-11-09T21:37:07.919Z,70.80
2017-11-09T21:39:35.656Z,73.03
2017-11-09T21:42:03.280Z,66.70
2017-11-09T21:44:30.900Z,58.83
2017-11-09T21:46:58.625Z,57.83
2017-11-09T21:49:26.309Z,60.83
2017-11-09T21:51:53.937Z,62.90
2017-11-09T21:54:21.608Z,65.73
2017-11-09T21:56:49.281Z,55.67
2017-11-09T21:59:16.926Z,58.60
2017-11-09T22:01:44.593Z,69.00
2017-11-09T22:04:12.225Z,76.07
2017-11-09T22:06:39.847Z,73.60
2017-11-09T22:09:07.581Z,79.87
2017-11-09T22:11:35.260Z,64.90
2017-11-09T22:14:02.894Z,71.87
2017-11-09T22:16:30.560Z,74.63
2017-11-09T22:18:58.191Z,72.50
2017-11-09T22:21:25.870Z,65.40
2017-11-09T22:23:53.543Z,70.90
2017-11-09T22:26:21.232Z,74.10
2017-11-09T22:28:48.906Z,65.33
2017-11-09T22:31:16.584Z,54.37
2017-11-09T22:33:44.269Z,57.63
2017-11-09T22:36:11.888Z,50.33
2017-11-09T22:38:39.571Z,53.17
2017-11-09T22:41:07.186Z,43.73
2017-11-09T22:43:34.813Z,44.40
2017-11-09T22:46:02.593Z,44.33
2017-11-09T22:48:30.216Z,37.20
2017-11-09T22:50:57.893Z,46.90
2017-11-09T22:56:23.755Z,35.00
2017-11-09T22:58:51.485Z,34.87
2017-11-09T23:01:19.194Z,35.60
2017-11-09T23:03:47.025Z,32.63
2017-11-09T23:06:14.750Z,31.33
2017-11-09T23:08:42.428Z,33.77
2017-11-09T23:11:10.166Z,38.13
2017-11-09T23:13:37.885Z,31.60
2017-11-09T23:16:05.516Z,30.40
2017-11-09T23:18:33.188Z,25.63
2017-11-09T23:21:00.932Z,26.60
2017-11-09T23:23:28.543Z,34.47
2017-11-09T23:25:56.172Z,27.90
2017-11-09T23:28:23.849Z,25.27
2017-11-09T23:30:51.472Z,34.90
2017-11-09T23:33:21.868Z,35.23
2017-11-09T23:35:49.602Z,27.93
2017-11-09T23:38:17.213Z,25.13
2017-11-09T23:40:44.888Z,32.07
2017-11-09T23:43:12.568Z,28.50
2017-11-09T23:45:40.183Z,32.97
2017-11-09T23:48:07.801Z,33.03
2017-11-09T23:50:35.526Z,32.97
2017-11-09T23:53:03.163Z,29.77
2017-11-09T23:55:30.774Z,31.47
2017-11-09T23:57:58.549Z,35.27
